Time;durP1;ratioP1;P1;durP2;ratioP2;P2;SDS_P1;SDS_P2;PMS_P1;PMS_P2;Temp;Humidity;BMP_temperature;BMP_pressure;BME280_temperature;BME280_humidity;BME280_pressure;Samples;Min_cycle;Max_cycle;Signal;HPM_P1;HPM_P2
2022/11/01 00:01:50;;;;;;;76.45;16.92;;;;;;;16.71;67.69;101451.25;5094045;28;20028;-79
2022/11/01 00:04:16;;;;;;;102.93;19.38;;;;;;;16.68;67.49;101447.97;5057214;28;20032;-78
2022/11/01 00:06:42;;;;;;;59.33;14.57;;;;;;;16.72;67.60;101461.13;5093224;28;20035;-79
2022/11/01 00:09:07;;;;;;;51.58;18.17;;;;;;;16.71;67.11;101458.53;5092957;28;20026;-80
2022/11/01 00:11:33;;;;;;;62.47;16.13;;;;;;;16.53;67.35;101424.91;5093450;28;20479;-80
2022/11/01 00:13:58;;;;;;;32.75;14.43;;;;;;;16.64;66.97;101444.66;5093250;28;20020;-80
2022/11/01 00:16:24;;;;;;;55.13;15.20;;;;;;;16.70;67.01;101448.66;5093364;28;20066;-80
2022/11/01 00:18:49;;;;;;;37.40;14.90;;;;;;;16.56;67.00;101435.53;5092955;28;20051;-78
2022/11/01 00:21:16;;;;;;;52.72;16.73;;;;;;;16.68;66.81;101445.25;5092560;28;20127;-79
2022/11/01 00:23:42;;;;;;;67.95;16.92;;;;;;;16.64;66.82;101449.22;5091775;28;20032;-80
2022/11/01 00:26:12;;;;;;;40.50;14.07;;;;;;;16.54;66.55;101438.41;5092151;28;20024;-80
2022/11/01 00:28:38;;;;;;;49.58;13.80;;;;;;;16.63;66.55;101452.97;5092366;28;20024;-80
2022/11/01 00:31:03;;;;;;;43.22;14.70;;;;;;;16.45;66.20;101427.50;5092125;28;20161;-79
2022/11/01 00:33:29;;;;;;;37.75;13.68;;;;;;;16.41;66.01;101420.63;5092310;28;20085;-79
2022/11/01 00:35:59;;;;;;;35.42;13.98;;;;;;;16.49;66.30;101451.50;5092195;28;20106;-78
2022/11/01 00:38:24;;;;;;;75.35;15.75;;;;;;;16.48;66.28;101443.50;5092188;28;20111;-79
2022/11/01 00:40:50;;;;;;;417.17;45.75;;;;;;;16.45;66.34;101450.06;5091965;28;20031;-79
2022/11/01 00:43:15;;;;;;;74.80;15.38;;;;;;;16.40;66.04;101440.63;5091920;28;20048;-78
2022/11/01 00:45:43;;;;;;;128.32;19.77;;;;;;;16.28;66.20;101434.50;5092003;28;20122;-78
2022/11/01 00:48:09;;;;;;;79.88;18.33;;;;;;;16.22;66.87;101418.78;5092062;28;20553;-78
2022/11/01 00:50:34;;;;;;;72.40;18.13;;;;;;;16.30;66.98;101448.75;5091443;28;20020;-79
2022/11/01 00:52:59;;;;;;;37.50;15.10;;;;;;;16.30;66.91;101446.91;5091657;28;20031;-79
2022/11/01 00:55:25;;;;;;;82.15;17.88;;;;;;;16.33;66.94;101441.19;5092247;28;20107;-79
2022/11/01 00:57:50;;;;;;;44.72;15.02;;;;;;;16.12;66.94;101424.19;5092033;28;20111;-79
2022/11/01 01:00:16;;;;;;;47.72;16.00;;;;;;;16.17;67.13;101423.78;5092166;28;20415;-78
2022/11/01 01:02:42;;;;;;;45.55;16.98;;;;;;;16.31;66.78;101442.34;5092394;28;20086;-79
2022/11/01 01:05:08;;;;;;;103.68;18.77;;;;;;;16.31;66.77;101445.94;5095526;28;20028;-78
2022/11/01 01:07:34;;;;;;;105.78;19.83;;;;;;;16.30;66.71;101441.47;5112146;28;20020;-77
2022/11/01 01:09:59;;;;;;;31.38;14.02;;;;;;;16.17;66.74;101440.06;5112948;28;20035;-79
2022/11/01 01:12:24;;;;;;;117.55;19.55;;;;;;;16.18;66.76;101441.75;5100798;28;20487;-79
2022/11/01 01:14:50;;;;;;;25.40;13.60;;;;;;;16.10;67.02;101444.31;5091275;28;20551;-79
2022/11/01 01:17:17;;;;;;;27.40;14.35;;;;;;;16.08;67.37;101444.47;5091740;28;20032;-80
2022/11/01 01:19:42;;;;;;;129.20;21.90;;;;;;;16.10;67.38;101439.75;5091183;28;20028;-80
2022/11/01 01:22:08;;;;;;;59.97;15.05;;;;;;;16.11;67.42;101444.19;5091103;28;20093;-80
2022/11/01 01:24:33;;;;;;;47.03;14.65;;;;;;;16.00;67.44;101447.00;5091025;28;20057;-78
2022/11/01 01:26:59;;;;;;;34.92;16.67;;;;;;;15.93;67.66;101435.00;5091322;28;20444;-81
2022/11/01 01:29:24;;;;;;;38.35;15.80;;;;;;;15.82;67.91;101432.41;5091347;28;20032;-78
2022/11/01 01:31:50;;;;;;;39.53;15.18;;;;;;;15.76;68.25;101444.69;5091480;28;20526;-78
2022/11/01 01:34:16;;;;;;;41.67;16.95;;;;;;;15.64;68.23;101437.66;5091233;28;20027;-79
2022/11/01 01:36:42;;;;;;;32.97;16.13;;;;;;;15.56;68.43;101431.19;5091165;28;20435;-78
2022/11/01 01:39:08;;;;;;;30.67;16.23;;;;;;;15.64;68.79;101444.91;5091061;28;20028;-79
2022/11/01 01:44:48;;;;;;;30.25;13.70;;;;;;;15.66;68.83;101443.78;5090929;28;20039;-79
2022/11/01 01:47:26;;;;;;;36.83;16.35;;;;;;;15.70;68.84;101450.66;5090649;28;20154;-79
2022/11/01 01:50:04;;;;;;;32.85;14.68;;;;;;;15.71;68.81;101446.09;5091214;28;20072;-79
2022/11/01 01:52:33;;;;;;;44.95;16.55;;;;;;;15.68;68.86;101443.66;5090946;28;20109;-81
2022/11/01 01:55:03;;;;;;;61.38;18.20;;;;;;;15.69;69.17;101448.94;5090970;28;20050;-78
2022/11/01 01:57:29;;;;;;;60.90;18.30;;;;;;;15.68;69.02;101432.81;5089267;28;20024;-81
2022/11/01 01:59:54;;;;;;;99.40;18.25;;;;;;;15.71;69.00;101454.22;5090931;28;20743;-79
2022/11/01 02:02:20;;;;;;;52.40;17.88;;;;;;;15.72;68.99;101447.78;5071734;28;20036;-78
2022/11/01 02:05:01;;;;;;;75.53;18.63;;;;;;;15.72;69.17;101458.63;5090994;28;20419;-79
2022/11/01 02:07:27;;;;;;;50.65;16.95;;;;;;;15.65;68.93;101446.66;5090558;28;20031;-80
2022/11/01 02:09:55;;;;;;;37.20;15.15;;;;;;;15.62;69.13;101441.50;5090577;28;20173;-78
2022/11/01 02:12:23;;;;;;;71.47;16.90;;;;;;;15.64;68.84;101442.22;5091060;28;20031;-79
2022/11/01 02:14:49;;;;;;;42.22;15.88;;;;;;;15.71;69.09;101459.66;5090827;28;20044;-79
2022/11/01 02:17:25;;;;;;;41.22;16.40;;;;;;;15.69;69.12;101454.34;5095032;28;20043;-77
2022/11/01 02:20:10;;;;;;;32.97;14.43;;;;;;;15.68;68.96;101452.66;5112557;28;20016;-78
2022/11/01 02:22:36;;;;;;;97.47;19.80;;;;;;;15.67;69.00;101452.78;5112623;28;20028;-78
2022/11/01 02:25:39;;;;;;;51.95;17.20;;;;;;;15.66;69.19;101453.75;5096006;28;20027;-77
2022/11/01 02:28:13;;;;;;;;;;;;;;;15.62;69.19;101450.50;5091151;28;20023;-78
2022/11/01 02:30:45;;;;;;;100.40;17.13;;;;;;;15.62;69.22;101455.06;5090682;28;20294;-78
2022/11/01 02:33:34;;;;;;;46.17;16.42;;;;;;;15.59;69.27;101455.34;5090480;28;20047;-77
2022/11/01 02:36:08;;;;;;;43.70;22.92;;;;;;;15.34;69.32;101415.97;5090854;28;20040;-79
2022/11/01 02:38:59;;;;;;;27.98;16.40;;;;;;;15.40;69.52;101431.69;5090872;28;20479;-80
2022/11/01 02:41:29;;;;;;;37.53;15.13;;;;;;;15.58;69.29;101464.44;5090078;28;20063;-78
2022/11/01 02:44:00;;;;;;;27.90;16.30;;;;;;;15.50;69.40;101457.03;5087705;28;20407;-78
2022/11/01 02:49:16;;;;;;;52.03;17.67;;;;;;;15.49;69.67;101460.72;5088874;28;20039;-78
2022/11/01 02:51:43;;;;;;;36.60;16.83;;;;;;;15.47;69.62;101448.25;5088886;28;20498;-80
2022/11/01 02:54:18;;;;;;;37.28;16.63;;;;;;;15.25;69.64;101425.78;5088796;28;20031;-80
2022/11/01 02:56:43;;;;;;;41.90;16.75;;;;;;;15.24;69.93;101424.03;5088835;28;20406;-78
2022/11/01 02:59:20;;;;;;;34.00;17.52;;;;;;;15.45;69.92;101458.38;5089180;28;20027;-79
2022/11/01 03:02:05;;;;;;;29.73;15.95;;;;;;;15.47;69.84;101469.94;5088748;28;20540;-79
2022/11/01 03:04:31;;;;;;;220.23;27.80;;;;;;;15.34;69.85;101445.78;5088902;28;20173;-79
2022/11/01 03:07:00;;;;;;;123.80;24.00;;;;;;;15.36;70.02;101457.31;5088835;28;20583;-78
2022/11/01 03:09:27;;;;;;;101.05;19.42;;;;;;;15.42;70.05;101464.91;5089196;28;20038;-77
2022/11/01 03:12:05;;;;;;;46.03;16.45;;;;;;;15.43;70.21;101473.91;5088856;28;20395;-80
2022/11/01 03:15:22;;;;;;;57.63;18.10;;;;;;;15.44;69.97;101468.34;5088692;28;20082;-80
2022/11/01 03:17:55;;;;;;;166.98;22.10;;;;;;;15.41;69.98;101475.91;5026210;28;20569;-79
2022/11/01 03:20:46;;;;;;;251.65;27.40;;;;;;;15.42;70.00;101474.91;5025967;28;20469;-80
2022/11/01 03:23:18;;;;;;;140.38;20.23;;;;;;;15.37;70.01;101469.91;5026152;28;20409;-80
2022/11/01 03:25:49;;;;;;;;;;;;;;;15.36;70.29;101470.00;5026812;28;20033;-79
2022/11/01 03:28:23;;;;;;;225.27;25.42;;;;;;;15.34;70.42;101472.88;5025920;28;19912;-79
2022/11/01 03:31:01;;;;;;;455.65;50.35;;;;;;;15.39;70.24;101464.31;5045227;28;20104;-77
2022/11/01 03:33:29;;;;;;;295.98;30.10;;;;;;;15.39;70.11;101477.88;5047932;28;20208;-77
2022/11/01 03:36:00;;;;;;;206.98;29.17;;;;;;;15.37;70.31;101477.16;5010783;28;20624;-78
2022/11/01 03:38:31;;;;;;;141.93;21.40;;;;;;;15.33;70.45;101478.41;5025910;28;20037;-79
2022/11/01 03:41:02;;;;;;;69.13;19.30;;;;;;;15.33;70.41;101483.84;5026218;28;20025;-78
2022/11/01 03:43:30;;;;;;;175.73;28.27;;;;;;;15.33;70.34;101475.72;5026106;28;20087;-79
2022/11/01 03:45:56;;;;;;;105.53;22.80;;;;;;;15.26;70.50;101465.41;5026058;28;20144;-77
2022/11/01 03:48:21;;;;;;;103.90;20.73;;;;;;;15.21;70.90;101462.25;5058085;28;20115;-79
2022/11/01 03:50:49;;;;;;;194.60;27.55;;;;;;;15.29;70.30;101475.13;5088518;28;20058;-78
2022/11/01 03:53:15;;;;;;;237.13;27.80;;;;;;;15.28;70.72;101473.41;5088588;28;20100;-80
2022/11/01 03:55:41;;;;;;;286.17;32.67;;;;;;;15.25;70.82;101474.56;5088336;28;20036;-80
2022/11/01 03:58:07;;;;;;;232.00;29.08;;;;;;;15.02;70.66;101443.16;5088377;28;20035;-79
2022/11/01 04:00:41;;;;;;;60.38;17.35;;;;;;;15.22;70.49;101482.09;5091734;28;20028;-79
2022/11/01 04:03:07;;;;;;;73.43;18.17;;;;;;;15.21;70.54;101478.50;5091706;28;20023;-79
2022/11/01 04:05:34;;;;;;;61.50;17.92;;;;;;;15.16;70.63;101478.06;5091847;28;20468;-79
2022/11/01 04:07:59;;;;;;;67.18;19.42;;;;;;;15.15;70.62;101484.47;5092188;28;20078;-79
2022/11/01 04:10:27;;;;;;;80.30;20.63;;;;;;;15.10;71.03;101483.16;5091676;28;20052;-79
2022/11/01 04:12:54;;;;;;;71.55;19.48;;;;;;;15.00;71.07;101472.25;5091576;28;20031;-80
2022/11/01 04:21:16;;;;;;;69.93;24.10;;;;;;;14.93;71.20;101490.00;5091838;28;20035;-80
2022/11/01 04:23:43;;;;;;;56.67;24.65;;;;;;;14.93;71.07;101490.00;5091383;28;20016;-80
2022/11/01 04:26:19;;;;;;;106.63;25.27;;;;;;;14.93;71.28;101481.88;5091636;28;20020;-78
2022/11/01 04:28:55;;;;;;;98.43;25.00;;;;;;;14.87;71.08;101484.25;5091429;28;20028;-79
2022/11/01 04:31:33;;;;;;;237.18;32.70;;;;;;;14.84;71.42;101489.94;5091390;28;20058;-80
2022/11/01 04:33:59;;;;;;;110.20;28.10;;;;;;;14.78;71.60;101494.03;5091650;28;20031;-79
2022/11/01 04:36:25;;;;;;;103.05;27.85;;;;;;;14.66;71.38;101482.41;5091254;28;20621;-80
2022/11/01 04:38:54;;;;;;;49.88;27.88;;;;;;;14.68;71.45;101490.38;5091294;28;20020;-79
2022/11/01 04:41:21;;;;;;;183.90;30.23;;;;;;;14.60;71.63;101488.34;5094399;28;20032;-79
2022/11/01 04:43:48;;;;;;;84.20;26.25;;;;;;;14.64;71.87;101505.19;5111883;28;20028;-77
2022/11/01 04:46:13;;;;;;;85.28;27.15;;;;;;;14.54;72.42;101488.84;5112382;28;20067;-79
2022/11/01 04:48:39;;;;;;;93.20;28.20;;;;;;;14.63;72.08;101498.91;5103901;28;20085;-79
2022/11/01 04:51:05;;;;;;;167.63;33.92;;;;;;;14.60;72.06;101501.00;5092734;28;20020;-79
2022/11/01 04:53:30;;;;;;;169.43;32.60;;;;;;;14.54;72.27;101482.56;5091049;28;20059;-80
2022/11/01 04:55:55;;;;;;;116.60;30.52;;;;;;;14.63;72.35;101500.75;5075115;28;20457;-79
2022/11/01 04:58:21;;;;;;;260.92;37.55;;;;;;;14.55;72.09;101495.13;5090896;28;20124;-81
2022/11/01 05:00:47;;;;;;;160.10;30.13;;;;;;;14.58;72.38;101500.28;5090676;28;20052;-80
2022/11/01 05:03:12;;;;;;;284.65;36.22;;;;;;;14.63;72.32;101508.88;5090596;28;20024;-79
2022/11/01 05:05:38;;;;;;;247.07;34.15;;;;;;;14.63;72.53;101515.16;5090555;28;20020;-80
2022/11/01 05:08:09;;;;;;;181.88;30.05;;;;;;;14.65;72.70;101506.88;5090816;28;20099;-79
2022/11/01 05:10:37;;;;;;;143.93;27.90;;;;;;;14.60;72.96;101496.47;5090159;28;20035;-80
2022/11/01 05:13:04;;;;;;;357.83;44.67;;;;;;;14.51;73.11;101485.53;5090669;28;20085;-79
2022/11/01 05:15:29;;;;;;;197.77;33.70;;;;;;;14.58;73.47;101494.88;5090625;28;20024;-79
2022/11/01 05:17:55;;;;;;;336.88;41.13;;;;;;;14.75;73.47;101512.38;5090225;28;20480;-80
2022/11/01 05:20:21;;;;;;;378.42;40.13;;;;;;;14.79;73.21;101530.97;5090984;28;20136;-81
2022/11/01 05:22:47;;;;;;;417.88;44.67;;;;;;;14.83;73.50;101518.03;5071167;28;20040;-79
2022/11/01 05:25:12;;;;;;;571.78;58.97;;;;;;;14.89;73.64;101529.19;5089878;28;20035;-79
2022/11/01 05:27:38;;;;;;;208.55;29.73;;;;;;;14.97;73.66;101533.97;5090308;28;20028;-79
2022/11/01 05:30:04;;;;;;;193.35;27.73;;;;;;;14.88;73.42;101513.06;5090426;28;20024;-78
2022/11/01 05:32:30;;;;;;;244.38;36.42;;;;;;;15.06;73.38;101533.16;5090557;28;20054;-80
2022/11/01 05:34:56;;;;;;;243.43;30.27;;;;;;;15.05;73.68;101529.59;5089896;28;20175;-81
2022/11/01 05:37:21;;;;;;;196.05;28.85;;;;;;;15.20;73.38;101536.41;5089984;28;20395;-79
2022/11/01 05:39:46;;;;;;;310.92;34.53;;;;;;;15.26;72.99;101535.88;5090060;28;20064;-79
2022/11/01 05:42:12;;;;;;;211.82;29.17;;;;;;;15.30;72.80;101541.88;5090215;28;20031;-79
2022/11/01 05:44:37;;;;;;;243.25;35.00;;;;;;;15.22;72.87;101517.31;5089923;28;20024;-78
2022/11/01 05:47:03;;;;;;;627.90;63.72;;;;;;;15.43;72.94;101547.13;5090156;28;20043;-78
2022/11/01 05:49:29;;;;;;;420.73;52.45;;;;;;;15.49;72.43;101549.31;5089668;28;20078;-79
2022/11/01 05:51:54;;;;;;;419.90;45.45;;;;;;;15.57;72.64;101544.06;5090333;28;20062;-80
2022/11/01 05:54:20;;;;;;;217.68;32.13;;;;;;;15.60;72.50;101543.81;5100878;28;20085;-79
2022/11/01 05:56:45;;;;;;;280.55;36.83;;;;;;;15.67;72.03;101545.00;5113796;28;20024;-78
2022/11/01 05:59:11;;;;;;;645.80;72.93;;;;;;;15.73;71.79;101547.16;5110806;28;20126;-77
2022/11/01 06:01:36;;;;;;;603.25;70.50;;;;;;;15.80;71.73;101551.06;5094501;28;20031;-79
2022/11/01 06:04:02;;;;;;;458.27;48.83;;;;;;;15.89;71.58;101541.25;5089841;28;20024;-80
2022/11/01 06:06:29;;;;;;;388.10;46.53;;;;;;;15.81;71.39;101527.50;5089674;28;20398;-79
2022/11/01 06:08:56;;;;;;;96.03;28.65;;;;;;;16.00;71.22;101552.84;5089268;28;20198;-79
2022/11/01 06:11:22;;;;;;;94.55;30.80;;;;;;;16.03;70.32;101558.00;5069821;28;20040;-79
2022/11/01 06:13:52;;;;;;;159.55;33.65;;;;;;;16.15;69.94;101556.91;5089332;28;20028;-78
2022/11/01 06:16:18;;;;;;;346.10;45.80;;;;;;;16.23;70.02;101565.22;5088921;28;20107;-80
2022/11/01 06:18:43;;;;;;;266.35;46.55;;;;;;;16.31;69.68;101568.09;5089156;28;20107;-79
2022/11/01 06:21:08;;;;;;;230.65;43.35;;;;;;;16.37;69.63;101579.38;5088984;28;20489;-80
2022/11/01 06:23:34;;;;;;;335.25;55.22;;;;;;;16.28;69.12;101552.09;5088427;28;20431;-79
2022/11/01 06:26:03;;;;;;;92.95;31.88;;;;;;;16.43;68.66;101573.41;5089477;28;20032;-79
2022/11/01 06:28:29;;;;;;;106.72;32.10;;;;;;;16.45;68.42;101574.16;5088947;28;20621;-79
2022/11/01 06:30:54;;;;;;;247.05;43.03;;;;;;;16.45;68.02;101563.28;5088730;28;20102;-80
2022/11/01 06:33:20;;;;;;;113.68;34.35;;;;;;;16.58;67.75;101574.75;5088919;28;20039;-79
2022/11/01 06:35:45;;;;;;;86.30;34.50;;;;;;;16.62;67.50;101573.47;5089062;28;20103;-79
2022/11/01 06:38:11;;;;;;;75.68;31.10;;;;;;;16.72;66.97;101579.78;5088994;28;20116;-79
2022/11/01 06:40:36;;;;;;;137.35;36.20;;;;;;;16.76;66.43;101573.91;5089171;28;20403;-79
2022/11/01 06:43:04;;;;;;;95.22;32.13;;;;;;;16.66;66.24;101558.63;5088974;28;20394;-80
2022/11/01 06:45:30;;;;;;;81.97;30.30;;;;;;;16.88;65.84;101578.22;5088428;28;20016;-80
2022/11/01 06:47:56;;;;;;;75.45;30.10;;;;;;;16.95;65.93;101583.94;5089009;28;20028;-80
2022/11/01 06:50:22;;;;;;;61.35;29.75;;;;;;;16.95;65.52;101583.94;5088759;28;20023;-80
2022/11/01 06:52:48;;;;;;;58.95;27.38;;;;;;;16.90;65.33;101569.94;5088590;28;20024;-80
2022/11/01 06:55:14;;;;;;;201.63;35.85;;;;;;;17.09;65.19;101579.97;5088564;28;20035;-77
2022/11/01 06:57:51;;;;;;;553.90;59.92;;;;;;;17.15;65.00;101582.97;5089043;28;20510;-80
2022/11/01 07:00:16;;;;;;;209.15;42.58;;;;;;;17.27;65.01;101595.41;5090180;28;20029;-80
2022/11/01 07:02:42;;;;;;;167.52;36.17;;;;;;;17.33;65.13;101589.38;5090481;28;20030;-79
2022/11/01 07:05:07;;;;;;;449.60;53.75;;;;;;;17.33;64.84;101589.38;5091009;28;20024;-78
2022/11/01 07:07:33;;;;;;;137.13;30.52;;;;;;;17.33;64.79;101562.19;5106709;28;20032;-80
2022/11/01 07:09:58;;;;;;;55.72;26.30;;;;;;;17.54;64.90;101591.06;5107765;28;20031;-79
2022/11/01 07:12:23;;;;;;;62.05;26.42;;;;;;;17.57;64.69;101580.78;5101836;28;20031;-80
2022/11/01 07:14:49;;;;;;;159.55;29.83;;;;;;;17.51;64.69;101558.72;5069895;28;20045;-80
2022/11/01 07:17:14;;;;;;;98.15;32.10;;;;;;;17.69;64.30;101585.03;5089353;28;20134;-79
2022/11/01 07:19:40;;;;;;;62.35;26.27;;;;;;;17.76;64.40;101590.75;5089264;28;20032;-81
2022/11/01 07:22:05;;;;;;;55.78;23.15;;;;;;;17.77;64.11;101597.91;5089246;28;20052;-81
2022/11/01 07:24:30;;;;;;;60.92;21.65;;;;;;;17.57;64.39;101571.75;5089217;28;20084;-81
2022/11/01 07:26:56;;;;;;;61.85;23.52;;;;;;;17.58;64.76;101578.94;5089301;28;20038;-81
2022/11/01 07:29:21;;;;;;;87.97;24.48;;;;;;;17.63;65.16;101584.78;5088920;28;20408;-81
2022/11/01 07:31:47;;;;;;;51.63;21.75;;;;;;;17.68;64.79;101583.31;5089347;28;20048;-80
2022/11/01 07:34:12;;;;;;;64.05;22.25;;;;;;;17.81;64.90;101585.72;5090080;28;20683;-79
2022/11/01 07:36:38;;;;;;;70.80;22.20;;;;;;;17.85;65.03;101585.28;5073041;28;20039;-79
2022/11/01 07:39:04;;;;;;;88.00;21.60;;;;;;;17.76;66.51;101575.28;5092062;28;20475;-80
2022/11/01 07:41:29;;;;;;;66.47;19.08;;;;;;;17.93;67.42;101593.56;5092194;28;20447;-79
2022/11/01 07:43:55;;;;;;;121.45;20.45;;;;;;;17.99;68.06;101593.97;5092131;28;20028;-80
2022/11/01 07:46:20;;;;;;;38.83;14.35;;;;;;;18.14;67.80;101587.88;5092138;28;20028;-80
2022/11/01 07:48:46;;;;;;;24.38;14.35;;;;;;;18.25;67.94;101582.25;5092213;28;20028;-80
2022/11/01 07:51:11;;;;;;;93.97;18.77;;;;;;;18.27;68.09;101574.78;5092266;28;20042;-80
2022/11/01 07:53:37;;;;;;;82.90;16.90;;;;;;;18.08;68.37;101531.31;5092130;28;20031;-79
2022/11/01 07:56:02;;;;;;;44.08;16.30;;;;;;;18.45;68.10;101577.53;5092213;28;20475;-79
2022/11/01 07:58:28;;;;;;;57.85;16.02;;;;;;;18.52;68.22;101575.09;5072772;28;20413;-79
2022/11/01 08:00:54;;;;;;;54.33;15.50;;;;;;;18.39;68.47;101579.00;5091798;28;20502;-80
2022/11/01 08:03:19;;;;;;;29.38;14.35;;;;;;;18.33;68.88;101579.63;5092043;28;20022;-79
2022/11/01 08:05:46;;;;;;;131.88;20.42;;;;;;;18.37;69.02;101566.56;5091746;28;20028;-78
2022/11/01 08:08:13;;;;;;;48.30;14.55;;;;;;;18.33;69.23;101576.91;5091809;28;20085;-78
2022/11/01 08:10:38;;;;;;;74.93;14.93;;;;;;;18.33;69.39;101568.72;5091689;28;20054;-81
2022/11/01 08:13:17;;;;;;;31.08;12.57;;;;;;;18.33;69.60;101568.72;5091540;28;20024;-79
2022/11/01 08:15:44;;;;;;;30.20;12.88;;;;;;;18.31;69.97;101570.75;5092194;28;20028;-79
2022/11/01 08:18:10;;;;;;;27.73;11.65;;;;;;;18.31;70.00;101572.63;5100990;28;20028;-79
2022/11/01 08:20:35;;;;;;;59.17;14.10;;;;;;;18.23;70.35;101561.59;5108785;28;20039;-80
2022/11/01 08:23:01;;;;;;;28.27;11.65;;;;;;;18.09;70.42;101530.31;5114676;28;20035;-81
2022/11/01 08:25:27;;;;;;;42.13;14.18;;;;;;;18.39;70.40;101551.78;5094905;28;20016;-79
2022/11/01 08:27:53;;;;;;;45.85;13.05;;;;;;;18.54;69.71;101556.72;5091671;28;20471;-79
2022/11/01 08:30:19;;;;;;;31.38;12.52;;;;;;;18.51;69.93;101562.47;5072188;28;20040;-80
2022/11/01 08:32:45;;;;;;;19.85;12.13;;;;;;;18.63;69.85;101574.88;5089646;28;20415;-79
2022/11/01 08:35:11;;;;;;;42.33;12.77;;;;;;;18.63;69.97;101563.97;5091373;28;20024;-79
2022/11/01 08:37:37;;;;;;;71.68;14.77;;;;;;;18.71;69.98;101570.38;5091178;28;20028;-78
2022/11/01 08:40:03;;;;;;;37.00;10.52;;;;;;;18.68;69.30;101572.56;5090692;28;20241;-81
2022/11/01 08:42:29;;;;;;;26.45;13.40;;;;;;;18.70;69.40;101573.25;5071720;28;20578;-79
2022/11/01 08:44:54;;;;;;;31.48;10.20;;;;;;;18.73;69.07;101559.31;5090239;28;20032;-79
2022/11/01 08:47:20;;;;;;;47.10;11.73;;;;;;;18.60;69.02;101534.31;5090589;28;20360;-81
2022/11/01 08:49:45;;;;;;;31.60;10.63;;;;;;;18.92;68.17;101564.63;5090863;28;20020;-80
2022/11/01 08:52:10;;;;;;;81.38;11.63;;;;;;;18.96;68.15;101568.72;5090885;28;20046;-80
2022/11/01 08:54:36;;;;;;;59.83;10.77;;;;;;;18.75;67.75;101541.78;5090795;28;20027;-79
2022/11/01 08:57:02;;;;;;;60.28;10.75;;;;;;;18.98;68.07;101569.44;5091014;28;20560;-82
2022/11/01 08:59:28;;;;;;;32.95;8.95;;;;;;;18.86;67.30;101571.56;5090966;28;20031;-79
2022/11/01 09:01:53;;;;;;;31.25;9.68;;;;;;;18.76;67.52;101551.69;5089618;28;20031;-80
2022/11/01 09:04:19;;;;;;;23.13;10.02;;;;;;;18.93;67.75;101566.31;5090892;28;20078;-80
2022/11/01 09:06:44;;;;;;;31.15;10.82;;;;;;;18.94;67.82;101568.03;5090710;28;20036;-80
2022/11/01 09:09:10;;;;;;;79.35;11.52;;;;;;;18.74;67.96;101539.25;5088263;28;20115;-80
2022/11/01 09:11:37;;;;;;;32.75;9.07;;;;;;;18.92;68.14;101559.19;5091399;28;20143;-79
2022/11/01 09:14:02;;;;;;;42.42;10.38;;;;;;;19.01;67.35;101553.66;5091004;28;20031;-79
2022/11/01 09:16:28;;;;;;;49.03;10.75;;;;;;;19.10;67.04;101562.75;5090955;28;20040;-79
2022/11/01 09:18:54;;;;;;;93.43;15.40;;;;;;;19.08;66.77;101553.84;5090620;28;20028;-80
2022/11/01 09:21:19;;;;;;;25.65;9.98;;;;;;;19.15;66.75;101560.38;5090705;28;20032;-81
2022/11/01 09:23:45;;;;;;;38.15;11.20;;;;;;;19.22;67.33;101556.03;5090766;28;20024;-80
2022/11/01 09:26:11;;;;;;;56.15;9.77;;;;;;;19.27;66.59;101567.31;5091096;28;20119;-78
2022/11/01 09:28:37;;;;;;;27.23;9.65;;;;;;;19.06;66.63;101522.31;5091710;28;20107;-79
2022/11/01 09:31:05;;;;;;;38.85;10.30;;;;;;;19.25;66.30;101555.72;5109284;28;20562;-77
2022/11/01 09:33:31;;;;;;;55.75;11.05;;;;;;;19.25;65.75;101561.16;5110031;28;20032;-78
2022/11/01 09:35:57;;;;;;;69.03;13.93;;;;;;;19.45;65.96;101554.53;5105221;28;20092;-80
2022/11/01 09:38:23;;;;;;;38.05;10.02;;;;;;;19.43;65.46;101552.97;5089891;28;20024;-81
2022/11/01 09:41:05;;;;;;;18.85;8.38;;;;;;;19.40;64.76;101562.34;5090163;28;20032;-78
2022/11/01 09:43:33;;;;;;;;;;;;;;;19.38;65.42;101550.72;5090612;28;20067;-79
2022/11/01 09:46:02;;;;;;;35.28;10.73;;;;;;;19.43;64.94;101550.25;5089632;28;20367;-79
2022/11/01 09:48:30;;;;;;;34.58;10.45;;;;;;;19.37;64.87;101562.63;5089605;28;20542;-79
2022/11/01 09:51:04;;;;;;;55.45;9.65;;;;;;;19.41;64.82;101555.88;5090158;28;20513;-79
2022/11/01 09:53:30;;;;;;;51.67;11.85;;;;;;;19.43;65.86;101559.28;5090494;28;20028;-80
2022/11/01 09:56:21;;;;;;;47.13;10.05;;;;;;;19.61;65.64;101542.88;5090031;28;20081;-78
2022/11/01 09:58:57;;;;;;;60.88;11.38;;;;;;;19.63;65.13;101540.00;5089546;28;20028;-80
2022/11/01 10:01:47;;;;;;;523.38;45.75;;;;;;;19.66;64.86;101542.41;5089181;28;20036;-80
2022/11/01 10:04:24;;;;;;;49.72;24.75;;;;;;;19.85;64.86;101543.00;5089541;28;20083;-79
2022/11/01 10:07:12;;;;;;;36.20;10.00;;;;;;;19.83;63.82;101534.13;5089572;28;20379;-80
2022/11/01 10:09:38;;;;;;;70.25;20.00;;;;;;;19.92;63.75;101543.22;5089008;28;20028;-80
2022/11/01 10:12:29;;;;;;;28.05;8.55;;;;;;;20.03;61.92;101537.44;5089336;28;20094;-81
2022/11/01 10:15:00;;;;;;;76.80;10.32;;;;;;;20.11;62.37;101542.97;5089505;28;20031;-79
2022/11/01 10:17:48;;;;;;;26.27;9.05;;;;;;;20.43;61.72;101532.19;5089074;28;20423;-78
2022/11/01 10:20:14;;;;;;;43.33;9.88;;;;;;;20.45;61.00;101535.63;5088960;28;20031;-80
2022/11/01 10:22:43;;;;;;;165.38;18.35;;;;;;;20.58;60.45;101535.09;5088967;28;20024;-81
2022/11/01 10:25:28;;;;;;;86.35;11.57;;;;;;;20.39;61.20;101530.81;5089273;28;20028;-80
2022/11/01 10:28:09;;;;;;;32.60;9.65;;;;;;;20.49;60.78;101525.19;5088968;28;20051;-80
2022/11/01 10:30:39;;;;;;;73.07;13.38;;;;;;;20.38;61.24;101533.69;5088587;28;20180;-79
2022/11/01 10:33:19;;;;;;;16.42;8.38;;;;;;;20.41;62.23;101539.69;5089692;28;20059;-80
2022/11/01 10:35:53;;;;;;;30.30;10.75;;;;;;;20.36;62.49;101531.16;5088670;28;20103;-80
2022/11/01 10:38:39;;;;;;;39.53;9.63;;;;;;;20.38;61.58;101533.69;5088830;28;20031;-79
2022/11/01 10:41:24;;;;;;;41.90;9.25;;;;;;;20.22;61.92;101518.06;5093276;28;20035;-79
2022/11/01 10:43:56;;;;;;;32.05;9.05;;;;;;;20.23;61.94;101500.69;5089288;28;20033;-79
2022/11/01 10:46:26;;;;;;;42.55;9.20;;;;;;;20.40;62.41;101517.97;5110799;28;20042;-80
2022/11/01 10:48:57;;;;;;;21.08;8.23;;;;;;;20.26;62.30;101507.72;5092934;28;20027;-81
2022/11/01 10:51:25;;;;;;;40.88;9.80;;;;;;;20.39;62.44;101519.88;5086879;28;20028;-80
2022/11/01 10:53:55;;;;;;;106.10;12.80;;;;;;;20.27;62.42;101513.03;5088693;28;20111;-79
2022/11/01 10:56:34;;;;;;;99.22;11.90;;;;;;;20.09;63.66;101517.69;5088614;28;20016;-79
2022/11/01 10:59:23;;;;;;;56.92;12.05;;;;;;;20.12;64.59;101517.34;5088577;28;20039;-80
2022/11/01 11:01:51;;;;;;;47.83;10.00;;;;;;;20.27;63.08;101504.81;5088589;28;20105;-80
2022/11/01 11:04:21;;;;;;;16.30;8.75;;;;;;;20.30;63.76;101482.63;5088632;28;20036;-80
2022/11/01 11:06:47;;;;;;;44.08;10.40;;;;;;;20.33;64.04;101498.69;5088724;28;20032;-79
2022/11/01 11:09:33;;;;;;;35.65;10.00;;;;;;;20.47;63.80;101498.03;5090699;28;20032;-79
2022/11/01 11:12:04;;;;;;;42.50;10.55;;;;;;;20.36;63.56;101471.03;5092687;28;20020;-79
2022/11/01 11:14:32;;;;;;;36.97;9.48;;;;;;;20.52;64.70;101498.38;5092695;28;20040;-80
2022/11/01 11:16:59;;;;;;;24.80;8.20;;;;;;;20.59;64.47;101487.63;5092686;28;20102;-79
2022/11/01 11:19:28;;;;;;;232.93;29.27;;;;;;;20.62;63.64;101499.09;5092363;28;20766;-80
2022/11/01 11:21:54;;;;;;;57.70;11.55;;;;;;;20.32;63.45;101449.66;5092301;28;20522;-81
2022/11/01 11:24:41;;;;;;;23.35;8.82;;;;;;;20.62;64.06;101482.69;5092338;28;20034;-79
2022/11/01 11:27:22;;;;;;;321.98;32.83;;;;;;;20.37;63.35;101450.00;5092527;28;20043;-80
2022/11/01 11:29:55;;;;;;;63.97;11.60;;;;;;;20.46;63.66;101474.44;5092105;28;20511;-80